createdAt,value
2023-01-08T00:01:17.807Z,51.35
2023-01-08T00:03:45.748Z,51.16
2023-01-08T00:06:16.134Z,51.18
2023-01-08T00:08:44.140Z,51.01
2023-01-08T00:11:11.928Z,50.85
2023-01-08T00:13:39.346Z,50.97
2023-01-08T00:16:10.191Z,50.65
2023-01-08T00:18:37.927Z,50.95
2023-01-08T00:21:05.531Z,50.91
2023-01-08T00:23:33.000Z,50.87
2023-01-08T00:26:05.924Z,51.17
2023-01-08T00:28:34.115Z,50.98
2023-01-08T00:31:04.304Z,50.67
2023-01-08T00:33:33.169Z,50.55
2023-01-08T00:36:01.302Z,50.82
2023-01-08T00:38:29.860Z,50.94
2023-01-08T00:40:57.612Z,50.76
2023-01-08T00:43:25.103Z,50.63
2023-01-08T00:45:53.913Z,50.62
2023-01-08T00:48:25.194Z,50.84
2023-01-08T00:50:53.717Z,50.45
2023-01-08T00:53:22.151Z,50.61
2023-01-08T00:55:49.522Z,50.73
2023-01-08T00:58:17.057Z,50.76
2023-01-08T01:00:44.492Z,50.62
2023-01-08T01:03:11.874Z,50.90
2023-01-08T01:05:39.255Z,50.63
2023-01-08T01:08:06.646Z,50.82
2023-01-08T01:10:34.293Z,51.05
2023-01-08T01:13:01.712Z,50.50
2023-01-08T01:15:29.156Z,50.95
2023-01-08T01:17:56.596Z,50.55
2023-01-08T01:20:24.014Z,51.16
2023-01-08T01:22:51.460Z,50.79
2023-01-08T01:25:18.827Z,51.01
2023-01-08T01:27:46.261Z,50.72
2023-01-08T01:30:13.651Z,50.88
2023-01-08T01:32:41.094Z,50.95
2023-01-08T01:35:08.680Z,50.86
2023-01-08T01:37:36.251Z,51.33
2023-01-08T01:40:03.945Z,51.04
2023-01-08T01:42:40.616Z,50.97
2023-01-08T01:45:34.505Z,51.20
2023-01-08T01:48:13.877Z,51.22
2023-01-08T01:50:41.238Z,51.30
2023-01-08T01:53:28.361Z,51.24
2023-01-08T01:55:57.917Z,51.27
2023-01-08T01:58:30.371Z,51.38
2023-01-08T02:01:02.762Z,51.49
2023-01-08T02:03:35.229Z,51.35
2023-01-08T02:06:35.221Z,51.22
2023-01-08T02:09:19.269Z,50.86
2023-01-08T02:12:16.242Z,51.21
2023-01-08T02:15:22.091Z,51.21
2023-01-08T02:17:55.303Z,51.19
2023-01-08T02:20:34.607Z,51.12
2023-01-08T02:23:15.158Z,51.43
2023-01-08T02:26:07.288Z,51.42
2023-01-08T02:28:44.214Z,51.29
2023-01-08T02:31:13.212Z,51.31
2023-01-08T02:33:40.771Z,51.57
2023-01-08T02:36:25.538Z,51.38
2023-01-08T02:39:30.659Z,51.78
2023-01-08T02:42:00.840Z,51.63
2023-01-08T02:44:58.344Z,51.44
2023-01-08T02:47:54.780Z,51.36
2023-01-08T02:50:29.464Z,51.58
2023-01-08T02:53:06.336Z,51.69
2023-01-08T02:55:36.430Z,51.52
2023-01-08T02:58:05.020Z,51.42
2023-01-08T03:00:33.729Z,51.62
2023-01-08T03:03:10.684Z,51.27
2023-01-08T03:05:42.074Z,51.35
2023-01-08T03:08:11.575Z,51.44
2023-01-08T03:10:42.055Z,51.32
2023-01-08T03:13:15.755Z,51.37
2023-01-08T03:15:47.805Z,51.09
2023-01-08T03:18:21.304Z,51.15
2023-01-08T03:20:49.597Z,51.31
2023-01-08T03:23:19.725Z,51.23
2023-01-08T03:25:48.543Z,51.12
2023-01-08T03:28:22.984Z,51.12
2023-01-08T03:30:53.244Z,51.37
2023-01-08T03:33:24.151Z,50.87
2023-01-08T03:35:55.509Z,51.12
2023-01-08T03:38:31.005Z,51.13
2023-01-08T03:41:05.447Z,50.89
2023-01-08T03:43:33.341Z,51.37
2023-01-08T03:46:05.781Z,50.96
2023-01-08T03:48:35.517Z,50.54
2023-01-08T03:51:02.988Z,50.82
2023-01-08T03:53:30.402Z,50.96
2023-01-08T03:55:58.259Z,50.68
2023-01-08T03:58:25.697Z,50.73
2023-01-08T04:00:53.245Z,50.84
2023-01-08T04:03:20.653Z,50.54
2023-01-08T04:05:48.035Z,50.75
2023-01-08T04:08:15.346Z,50.55
2023-01-08T04:10:42.729Z,50.34
2023-01-08T04:13:10.165Z,50.54
2023-01-08T04:15:37.537Z,50.53
2023-01-08T04:18:04.962Z,50.36
2023-01-08T04:20:32.310Z,51.01
2023-01-08T04:22:59.670Z,50.73
2023-01-08T04:25:27.055Z,50.47
2023-01-08T04:27:55.328Z,50.69
2023-01-08T04:30:22.765Z,50.44
2023-01-08T04:32:50.095Z,50.31
2023-01-08T04:35:17.479Z,50.56
2023-01-08T04:37:44.832Z,50.01
2023-01-08T04:40:12.444Z,50.31
2023-01-08T04:42:39.824Z,50.22
2023-01-08T04:45:07.962Z,50.37
2023-01-08T04:47:35.345Z,50.11
2023-01-08T04:50:02.787Z,50.19
2023-01-08T04:52:30.204Z,50.68
2023-01-08T04:54:57.574Z,50.39
2023-01-08T04:57:24.923Z,50.35
2023-01-08T04:59:52.357Z,50.32
2023-01-08T05:02:19.942Z,50.40
2023-01-08T05:04:48.153Z,50.35
2023-01-08T05:07:15.530Z,50.25
2023-01-08T05:09:42.897Z,50.31
2023-01-08T05:12:10.292Z,49.98
2023-01-08T05:14:37.713Z,50.33
2023-01-08T05:17:05.059Z,50.25
2023-01-08T05:19:32.420Z,50.40
2023-01-08T05:21:59.922Z,49.62
2023-01-08T05:24:27.381Z,49.86
2023-01-08T05:26:54.939Z,50.26
2023-01-08T05:29:22.374Z,49.88
2023-01-08T05:31:49.700Z,50.05
2023-01-08T05:34:17.125Z,50.00
2023-01-08T05:36:44.522Z,49.80
2023-01-08T05:39:11.887Z,49.75
2023-01-08T05:41:39.511Z,49.79
2023-01-08T05:44:07.174Z,49.65
2023-01-08T05:46:34.778Z,49.73
2023-01-08T05:49:02.434Z,49.83
2023-01-08T05:51:29.841Z,49.75
2023-01-08T05:53:57.809Z,49.78
2023-01-08T05:56:25.145Z,49.58
2023-01-08T05:58:55.166Z,49.86
2023-01-08T06:01:22.773Z,49.45
2023-01-08T06:03:50.225Z,49.35
2023-01-08T06:06:18.395Z,49.53
2023-01-08T06:08:45.796Z,49.51
2023-01-08T06:11:13.646Z,49.81
2023-01-08T06:13:44.352Z,49.68
2023-01-08T06:16:12.424Z,49.84
2023-01-08T06:18:39.978Z,49.50
2023-01-08T06:21:07.410Z,49.57
2023-01-08T06:23:34.820Z,49.78
2023-01-08T06:26:04.313Z,49.45
2023-01-08T06:28:32.223Z,49.59
2023-01-08T06:31:00.839Z,49.74
2023-01-08T06:33:29.332Z,49.79
2023-01-08T06:36:01.127Z,49.79
2023-01-08T06:38:33.155Z,49.41
2023-01-08T06:41:10.818Z,49.80
2023-01-08T06:43:38.961Z,49.66
2023-01-08T06:46:08.024Z,49.73
2023-01-08T06:48:36.438Z,49.54
2023-01-08T06:51:04.983Z,49.80
2023-01-08T06:53:32.408Z,49.77
2023-01-08T06:55:59.787Z,49.63
2023-01-08T06:58:27.967Z,49.58
2023-01-08T07:00:55.396Z,49.66
2023-01-08T07:03:22.736Z,49.68
2023-01-08T07:05:50.880Z,49.78
2023-01-08T07:08:18.878Z,49.69
2023-01-08T07:10:46.305Z,49.54
2023-01-08T07:13:13.839Z,49.69
2023-01-08T07:15:42.002Z,49.64
2023-01-08T07:18:11.345Z,49.60
2023-01-08T07:20:39.595Z,49.69
2023-01-08T07:23:10.281Z,49.65
2023-01-08T07:25:37.734Z,49.52
2023-01-08T07:28:05.666Z,49.64
2023-01-08T07:30:33.012Z,49.86
2023-01-08T07:33:01.241Z,49.81
2023-01-08T07:35:29.463Z,49.59
2023-01-08T07:37:56.853Z,49.32
2023-01-08T07:40:24.580Z,49.76
2023-01-08T07:43:02.701Z,49.61
2023-01-08T07:45:30.723Z,49.90
2023-01-08T07:47:58.927Z,49.70
2023-01-08T07:50:27.390Z,49.54
2023-01-08T07:52:59.538Z,49.77
2023-01-08T07:55:28.715Z,49.56
2023-01-08T07:57:56.202Z,49.46
2023-01-08T08:00:23.515Z,49.75
2023-01-08T08:02:50.976Z,49.75
2023-01-08T08:05:18.475Z,49.53
2023-01-08T08:07:45.869Z,49.39
2023-01-08T08:10:13.387Z,49.57
2023-01-08T08:12:40.794Z,49.57
2023-01-08T08:15:08.785Z,49.57
2023-01-08T08:17:36.154Z,49.88
2023-01-08T08:20:03.768Z,49.50
2023-01-08T08:22:31.163Z,49.66
2023-01-08T08:24:58.536Z,49.87
2023-01-08T08:27:25.883Z,49.64
2023-01-08T08:29:53.189Z,49.79
2023-01-08T08:32:20.617Z,49.89
2023-01-08T08:34:47.989Z,49.91
2023-01-08T08:37:15.400Z,50.00
2023-01-08T08:39:42.755Z,50.21
2023-01-08T08:42:10.091Z,49.98
2023-01-08T08:44:37.418Z,49.83
2023-01-08T08:47:09.159Z,50.21
2023-01-08T08:49:36.547Z,50.09
2023-01-08T08:52:04.746Z,49.75
2023-01-08T08:54:32.305Z,50.12
2023-01-08T08:56:59.655Z,50.25
2023-01-08T08:59:26.997Z,49.75
2023-01-08T09:01:54.451Z,49.93
2023-01-08T09:04:21.831Z,50.37
2023-01-08T09:06:49.145Z,50.21
2023-01-08T09:09:16.747Z,50.25
2023-01-08T09:11:44.141Z,50.52
2023-01-08T09:14:11.501Z,49.77
2023-01-08T09:16:38.844Z,49.87
2023-01-08T09:19:07.455Z,50.14
2023-01-08T09:21:36.049Z,50.01
2023-01-08T09:24:03.872Z,49.88
2023-01-08T09:26:31.213Z,49.86
2023-01-08T09:28:59.249Z,49.68
2023-01-08T09:31:27.211Z,49.51
2023-01-08T09:33:54.606Z,49.38
2023-01-08T09:36:21.976Z,49.48
2023-01-08T09:38:49.330Z,49.47
2023-01-08T09:41:28.074Z,49.53
2023-01-08T09:43:58.329Z,49.40
2023-01-08T09:46:28.651Z,49.37
2023-01-08T09:49:00.616Z,49.36
2023-01-08T09:51:34.591Z,49.07
2023-01-08T09:54:03.178Z,49.04
2023-01-08T09:56:30.688Z,49.57
2023-01-08T09:59:03.601Z,49.28
2023-01-08T10:01:37.144Z,49.08
2023-01-08T10:04:12.447Z,49.14
2023-01-08T10:07:14.311Z,49.24
2023-01-08T10:09:41.780Z,49.12
2023-01-08T10:12:12.988Z,49.34
2023-01-08T10:14:49.868Z,49.38
2023-01-08T10:17:27.170Z,48.91
2023-01-08T10:19:54.649Z,49.24
2023-01-08T10:22:25.267Z,49.19
2023-01-08T10:24:53.007Z,49.37
2023-01-08T10:27:23.073Z,49.41
2023-01-08T10:29:51.863Z,49.53
2023-01-08T10:32:34.539Z,49.42
2023-01-08T10:35:06.957Z,49.68
2023-01-08T10:37:42.620Z,49.80
2023-01-08T10:40:24.858Z,49.80
2023-01-08T10:42:54.825Z,50.17
2023-01-08T10:45:25.898Z,49.89
2023-01-08T10:47:57.956Z,49.60
2023-01-08T10:50:31.583Z,50.23
2023-01-08T10:53:04.431Z,50.15
2023-01-08T10:55:32.794Z,50.05
2023-01-08T10:58:04.562Z,50.15
2023-01-08T11:00:34.601Z,50.03
2023-01-08T11:03:05.672Z,49.98
2023-01-08T11:05:36.517Z,50.31
2023-01-08T11:08:08.571Z,50.06
2023-01-08T11:10:37.400Z,50.32
2023-01-08T11:13:10.562Z,50.50
2023-01-08T11:15:40.385Z,51.07
2023-01-08T11:18:20.595Z,51.23
2023-01-08T11:20:49.827Z,51.43
2023-01-08T11:23:21.981Z,51.64
2023-01-08T11:26:14.044Z,51.54
2023-01-08T11:28:52.672Z,51.57
2023-01-08T11:31:33.482Z,51.94
2023-01-08T11:34:12.375Z,51.79
2023-01-08T11:36:49.026Z,52.32
2023-01-08T11:39:18.574Z,52.17
2023-01-08T11:42:02.820Z,52.25
2023-01-08T11:45:12.086Z,52.41
2023-01-08T11:47:42.160Z,52.31
2023-01-08T11:50:39.565Z,52.49
2023-01-08T11:53:31.417Z,52.42
2023-01-08T11:56:18.223Z,52.53
2023-01-08T11:58:57.347Z,52.60
2023-01-08T12:01:36.779Z,52.93
2023-01-08T12:04:26.094Z,52.70
2023-01-08T12:07:11.389Z,52.71
2023-01-08T12:09:48.831Z,52.66
2023-01-08T12:12:41.145Z,52.72
2023-01-08T12:15:23.894Z,52.95
2023-01-08T12:18:26.599Z,52.74
2023-01-08T12:20:53.881Z,52.46
2023-01-08T12:23:56.859Z,52.44
2023-01-08T12:26:42.260Z,52.68
2023-01-08T12:29:28.352Z,52.37
2023-01-08T12:32:26.420Z,52.21
2023-01-08T12:35:20.185Z,52.20
2023-01-08T12:38:09.109Z,52.46
2023-01-08T12:40:42.146Z,52.38
2023-01-08T12:43:16.592Z,52.16
2023-01-08T12:45:46.503Z,52.16
2023-01-08T12:48:24.452Z,51.93
2023-01-08T12:50:57.818Z,52.01
2023-01-08T12:53:48.960Z,52.29
2023-01-08T12:56:36.084Z,52.26
2023-01-08T12:59:10.553Z,51.90
2023-01-08T13:01:47.882Z,52.05
2023-01-08T13:04:15.652Z,52.08
2023-01-08T13:07:03.148Z,51.83
2023-01-08T13:09:31.158Z,52.00
2023-01-08T13:12:00.415Z,51.99
2023-01-08T13:14:28.511Z,51.96
2023-01-08T13:17:08.151Z,51.76
2023-01-08T13:19:43.104Z,51.63
2023-01-08T13:22:40.921Z,51.80
2023-01-08T13:25:17.378Z,51.64
2023-01-08T13:27:46.788Z,51.89
2023-01-08T13:30:32.948Z,51.58
2023-01-08T13:33:00.508Z,51.50
2023-01-08T13:35:31.914Z,51.78
2023-01-08T13:38:20.910Z,51.43
2023-01-08T13:40:50.716Z,51.69
2023-01-08T13:43:19.722Z,51.64
2023-01-08T13:45:54.999Z,51.55
2023-01-08T13:48:48.325Z,51.63
2023-01-08T13:51:43.666Z,51.38
2023-01-08T13:54:17.023Z,51.30
2023-01-08T13:56:46.724Z,51.58
2023-01-08T13:59:38.205Z,51.60
2023-01-08T14:02:21.859Z,51.37
2023-01-08T14:04:50.480Z,51.49
2023-01-08T14:07:18.318Z,51.45
2023-01-08T14:09:45.909Z,51.44
2023-01-08T14:12:17.353Z,51.45
2023-01-08T14:14:49.606Z,51.66
